Time;durP1;ratioP1;P1;durP2;ratioP2;P2;SDS_P1;SDS_P2;PMS_P1;PMS_P2;Temp;Humidity;BMP_temperature;BMP_pressure;BME280_temperature;BME280_humidity;BME280_pressure;Samples;Min_cycle;Max_cycle;Signal;HPM_P1;HPM_P2
2023/04/02 00:01:33;;;;;;;9.25;1.58;;;;;;;15.98;44.17;95602.31;5050408;28;20484;-30
2023/04/02 00:04:12;;;;;;;9.77;1.85;;;;;;;16.07;44.09;95598.72;5016415;28;20045;-30
2023/04/02 00:06:43;;;;;;;6.82;2.13;;;;;;;16.11;43.91;95593.75;5050222;28;20020;-30
2023/04/02 00:09:11;;;;;;;10.55;2.00;;;;;;;16.02;43.80;95597.41;5053924;28;20024;-30
2023/04/02 00:11:40;;;;;;;12.25;2.67;;;;;;;15.94;44.32;95590.88;5045483;28;20025;-30
2023/04/02 00:14:15;;;;;;;13.68;2.42;;;;;;;15.91;44.52;95589.09;5029318;28;20111;-32
2023/04/02 00:16:41;;;;;;;10.85;1.85;;;;;;;15.98;44.65;95585.91;5052913;28;20469;-30
2023/04/02 00:19:14;;;;;;;9.82;2.20;;;;;;;16.05;44.45;95584.75;5053823;28;20107;-30
2023/04/02 00:21:42;;;;;;;8.88;2.08;;;;;;;15.88;44.73;95587.31;5046727;28;20082;-30
2023/04/02 00:24:16;;;;;;;9.60;2.00;;;;;;;15.98;44.92;95585.91;5052739;28;20412;-31
2023/04/02 00:26:47;;;;;;;6.65;2.63;;;;;;;15.96;45.23;95588.38;5053560;28;20036;-30
2023/04/02 00:29:14;;;;;;;11.10;3.10;;;;;;;16.00;45.53;95588.19;5050329;28;20021;-30
2023/04/02 00:31:49;;;;;;;16.08;3.03;;;;;;;16.00;45.92;95567.06;5048681;28;20465;-30
2023/04/02 00:34:22;;;;;;;11.25;2.90;;;;;;;16.03;45.97;95574.31;5050611;28;20042;-30
2023/04/02 00:36:49;;;;;;;6.25;2.22;;;;;;;15.99;46.16;95571.03;5049280;28;20078;-30
2023/04/02 00:39:40;;;;;;;12.57;2.72;;;;;;;16.10;45.96;95560.19;5046467;28;20159;-30
2023/04/02 00:42:05;;;;;;;16.52;2.78;;;;;;;16.08;45.62;95550.94;5052526;28;20020;-30
2023/04/02 00:44:44;;;;;;;14.73;2.88;;;;;;;15.82;46.30;95551.69;5052311;28;20021;-30
2023/04/02 00:47:19;;;;;;;8.93;2.42;;;;;;;16.05;46.19;95555.44;5052713;28;20029;-31
2023/04/02 00:49:45;;;;;;;12.82;2.67;;;;;;;16.08;46.08;95551.69;5040382;28;20402;-30
2023/04/02 00:52:15;;;;;;;10.32;2.42;;;;;;;16.23;45.84;95545.38;5053338;28;20082;-31
2023/04/02 00:54:47;;;;;;;13.85;2.50;;;;;;;15.95;46.27;95540.38;5038031;28;20021;-30
2023/04/02 00:57:20;;;;;;;11.55;2.35;;;;;;;15.95;46.11;95548.59;5052933;28;20086;-30
2023/04/02 01:00:07;;;;;;;9.25;2.83;;;;;;;16.01;45.98;95537.72;5052020;28;20461;-30
2023/04/02 01:02:37;;;;;;;10.85;2.45;;;;;;;15.86;46.66;95531.59;5051513;28;20060;-30
2023/04/02 01:05:23;;;;;;;14.80;2.75;;;;;;;15.92;46.73;95533.16;5053093;28;20115;-30
2023/04/02 01:08:10;;;;;;;9.25;2.53;;;;;;;15.87;47.08;95542.06;5049278;28;20037;-30
2023/04/02 01:10:59;;;;;;;12.50;3.40;;;;;;;15.92;46.76;95540.63;5051856;28;20388;-30
2023/04/02 01:13:36;;;;;;;11.65;2.70;;;;;;;15.98;46.71;95547.63;5048235;28;20028;-30
2023/04/02 01:16:36;;;;;;;7.93;2.30;;;;;;;15.81;46.87;95554.94;5051816;28;20029;-30
2023/04/02 01:19:38;;;;;;;12.18;3.03;;;;;;;15.86;47.07;95554.22;5040596;28;20041;-30
2023/04/02 01:22:34;;;;;;;11.57;3.00;;;;;;;15.81;47.24;95549.47;5051301;28;20469;-30
2023/04/02 01:25:03;;;;;;;10.55;2.25;;;;;;;15.82;47.41;95558.44;5038534;28;20067;-30
2023/04/02 01:28:09;;;;;;;12.88;3.08;;;;;;;15.86;47.48;95554.22;5052513;28;20087;-30
2023/04/02 01:30:35;;;;;;;10.43;2.42;;;;;;;15.88;47.21;95559.97;5041450;28;20533;-31
2023/04/02 01:33:01;;;;;;;9.93;2.75;;;;;;;15.85;47.26;95555.47;5049728;28;20346;-30
2023/04/02 01:35:32;;;;;;;13.48;3.10;;;;;;;15.84;47.53;95553.94;5045154;28;20021;-32
2023/04/02 01:38:04;;;;;;;12.38;3.38;;;;;;;15.96;47.29;95566.50;5051970;28;20051;-30
2023/04/02 01:40:53;;;;;;;9.52;2.40;;;;;;;16.03;47.30;95566.09;5038137;28;20013;-30
2023/04/02 01:43:24;;;;;;;16.27;2.97;;;;;;;15.95;47.65;95565.00;5050428;28;20029;-30
2023/04/02 01:45:50;;;;;;;13.73;2.88;;;;;;;15.76;47.69;95552.88;5052174;28;20013;-31
2023/04/02 01:48:26;;;;;;;13.45;2.63;;;;;;;15.78;47.81;95553.91;5050565;28;20028;-31
2023/04/02 01:50:54;;;;;;;16.15;3.00;;;;;;;15.90;47.51;95554.78;5052154;28;20049;-30
2023/04/02 01:53:23;;;;;;;11.98;2.88;;;;;;;15.83;47.92;95549.72;5043022;28;20021;-30
2023/04/02 01:55:54;;;;;;;13.30;2.90;;;;;;;15.85;48.02;95544.53;5037961;28;20021;-30
2023/04/02 01:58:30;;;;;;;13.35;3.17;;;;;;;15.93;47.91;95547.59;5051471;28;20044;-29
2023/04/02 02:01:04;;;;;;;12.23;3.88;;;;;;;15.94;48.00;95547.13;5038575;28;20045;-30
2023/04/02 02:03:30;;;;;;;13.65;3.00;;;;;;;16.02;47.44;95544.69;5050532;28;20043;-30
2023/04/02 02:05:57;;;;;;;14.32;3.50;;;;;;;15.90;47.54;95541.09;5037665;28;20025;-30
2023/04/02 02:08:31;;;;;;;13.48;3.10;;;;;;;15.93;47.59;95542.88;5051933;28;20028;-30
2023/04/02 02:10:58;;;;;;;12.43;2.38;;;;;;;15.90;48.11;95541.09;5048284;28;20032;-30
2023/04/02 02:13:24;;;;;;;12.70;2.40;;;;;;;16.10;47.64;95543.03;5047310;28;20404;-31
2023/04/02 02:15:50;;;;;;;13.02;2.85;;;;;;;15.75;48.28;95527.53;5050147;28;20108;-31
2023/04/02 02:18:22;;;;;;;15.85;3.33;;;;;;;15.91;47.96;95525.44;5046383;28;20457;-30
2023/04/02 02:20:48;;;;;;;16.33;3.20;;;;;;;16.07;47.75;95519.41;5048081;28;20033;-30
2023/04/02 02:23:14;;;;;;;9.50;2.88;;;;;;;15.97;47.86;95518.78;5039949;28;20096;-30
2023/04/02 02:25:40;;;;;;;10.15;2.53;;;;;;;15.93;47.86;95523.75;5050663;28;20424;-31
2023/04/02 02:28:13;;;;;;;12.43;2.78;;;;;;;15.93;47.46;95523.75;5049743;28;20107;-30
2023/04/02 02:31:00;;;;;;;13.85;3.13;;;;;;;15.75;48.45;95510.38;5051465;28;20128;-30
2023/04/02 02:33:38;;;;;;;13.95;3.10;;;;;;;15.72;48.74;95508.59;5037593;28;20035;-30
2023/04/02 02:36:19;;;;;;;10.95;3.05;;;;;;;15.79;48.27;95513.66;5042135;28;20112;-30
2023/04/02 02:38:56;;;;;;;10.68;2.80;;;;;;;15.70;48.44;95511.09;5044971;28;20053;-31
2023/04/02 02:41:41;;;;;;;15.18;3.20;;;;;;;15.77;48.31;95510.66;5049702;28;20037;-30
2023/04/02 02:44:07;;;;;;;13.68;3.20;;;;;;;15.77;48.10;95516.13;5050231;28;20017;-30
2023/04/02 02:46:34;;;;;;;14.77;3.42;;;;;;;15.67;48.62;95512.78;5050405;28;20501;-30
2023/04/02 02:49:03;;;;;;;9.13;3.15;;;;;;;15.70;48.73;95511.09;5051116;28;20017;-30
2023/04/02 02:52:00;;;;;;;9.98;2.65;;;;;;;15.81;48.39;95494.78;5049373;28;20028;-30
2023/04/02 02:54:27;;;;;;;14.65;3.08;;;;;;;15.96;47.90;95489.19;5041761;28;20032;-30
2023/04/02 02:56:59;;;;;;;10.05;2.60;;;;;;;15.80;48.38;95487.81;5051027;28;20017;-30
2023/04/02 02:59:26;;;;;;;11.10;2.83;;;;;;;15.67;48.63;95495.66;5042537;28;20017;-31
2023/04/02 03:01:52;;;;;;;12.27;3.25;;;;;;;15.77;48.33;95488.78;5036453;28;20378;-30
2023/04/02 03:04:22;;;;;;;14.63;2.65;;;;;;;15.42;49.08;95478.72;5050414;28;20020;-30
2023/04/02 03:06:51;;;;;;;12.25;3.22;;;;;;;15.55;49.36;95483.09;5049574;28;20040;-30
2023/04/02 03:09:50;;;;;;;14.43;3.00;;;;;;;15.73;48.94;95482.78;5050587;28;20115;-30
2023/04/02 03:12:53;;;;;;;10.18;3.03;;;;;;;15.61;49.01;95479.19;5032826;28;20049;-30
2023/04/02 03:15:34;;;;;;;17.42;3.17;;;;;;;15.78;48.84;95473.88;5040583;28;20086;-30
2023/04/02 03:18:12;;;;;;;11.63;2.75;;;;;;;15.77;48.96;95483.31;5047691;28;20043;-31
2023/04/02 03:21:16;;;;;;;14.43;2.58;;;;;;;15.60;48.97;95485.13;5050641;28;20025;-30
2023/04/02 03:23:46;;;;;;;14.80;3.15;;;;;;;15.75;48.66;95497.47;5046554;28;20064;-30
2023/04/02 03:26:22;;;;;;;14.50;2.95;;;;;;;15.70;48.88;95494.69;5049867;28;20487;-30
2023/04/02 03:28:58;;;;;;;14.93;3.03;;;;;;;15.86;48.94;95496.81;5050027;28;20032;-31
2023/04/02 03:31:43;;;;;;;15.20;2.65;;;;;;;15.66;49.11;95488.69;5036686;28;20024;-30
2023/04/02 03:34:40;;;;;;;13.00;2.65;;;;;;;15.61;49.30;95481.91;5047347;28;20476;-30
2023/04/02 03:37:19;;;;;;;13.50;3.22;;;;;;;15.60;48.84;95493.31;5045463;28;20536;-30
2023/04/02 03:39:58;;;;;;;14.23;3.20;;;;;;;15.48;49.25;95495.16;5050237;28;20025;-30
2023/04/02 03:42:26;;;;;;;13.25;3.47;;;;;;;15.54;49.40;95487.03;5048902;28;20056;-29
2023/04/02 03:45:05;;;;;;;13.02;2.88;;;;;;;15.63;49.36;95490.38;5050025;28;20013;-30
2023/04/02 03:47:48;;;;;;;13.73;2.88;;;;;;;15.72;48.99;95498.41;5049348;28;20025;-31
2023/04/02 03:50:17;;;;;;;;;;;;;;;15.69;48.86;95504.13;5049494;28;20025;-30
2023/04/02 03:52:43;;;;;;;14.50;3.60;;;;;;;15.65;49.14;95507.06;5046826;28;19975;-30
2023/04/02 03:55:16;;;;;;;15.25;3.20;;;;;;;15.73;48.74;95496.44;5046098;28;20028;-30
2023/04/02 03:58:03;;;;;;;15.70;2.33;;;;;;;15.76;49.08;95509.16;5047163;28;20484;-30
2023/04/02 04:00:43;;;;;;;19.27;3.53;;;;;;;15.90;48.87;95502.06;5046124;28;20489;-30
2023/04/02 04:03:16;;;;;;;11.80;2.53;;;;;;;15.75;48.74;95502.19;5049775;28;20024;-30
2023/04/02 04:05:50;;;;;;;9.73;3.42;;;;;;;15.63;49.19;95500.56;5048411;28;20024;-30
2023/04/02 04:08:25;;;;;;;10.65;2.25;;;;;;;15.56;48.92;95501.75;5050067;28;20021;-31
2023/04/02 04:10:54;;;;;;;11.18;3.80;;;;;;;15.46;49.61;95497.63;5046561;28;20021;-30
2023/04/02 04:13:48;;;;;;;12.85;2.85;;;;;;;15.54;49.66;95503.44;5038950;28;20109;-30
2023/04/02 04:16:17;;;;;;;;;;;;;;;15.68;48.96;95502.63;5035572;28;20056;-30
2023/04/02 04:18:56;;;;;;;14.68;2.85;;;;;;;15.78;49.03;95504.72;5046473;28;19916;-30
2023/04/02 04:21:29;;;;;;;11.20;2.35;;;;;;;15.74;49.31;95508.88;5038701;28;20154;-30
2023/04/02 04:24:04;;;;;;;12.32;3.00;;;;;;;15.72;48.86;95514.06;5048418;28;20095;-31
2023/04/02 04:26:54;;;;;;;9.30;2.03;;;;;;;15.48;49.79;95516.28;5049851;28;20028;-30
2023/04/02 04:29:37;;;;;;;15.20;3.13;;;;;;;15.66;49.23;95518.75;5042240;28;20024;-30
2023/04/02 04:32:34;;;;;;;11.50;2.83;;;;;;;15.55;49.46;95521.34;5047707;28;20465;-30
2023/04/02 04:35:18;;;;;;;13.02;2.78;;;;;;;15.68;49.76;95524.47;5033482;28;20080;-30
2023/04/02 04:37:48;;;;;;;13.57;3.88;;;;;;;15.79;49.51;95524.59;5039383;28;20476;-30
2023/04/02 04:40:23;;;;;;;13.68;2.50;;;;;;;15.69;49.88;95531.44;5048243;28;20028;-30
2023/04/02 04:42:53;;;;;;;14.80;3.13;;;;;;;15.66;49.68;95537.88;5049436;28;20079;-31
2023/04/02 04:45:34;;;;;;;13.15;2.78;;;;;;;15.59;49.83;95539.03;5047913;28;20388;-30
2023/04/02 04:48:04;;;;;;;10.50;2.72;;;;;;;15.62;49.84;95545.53;5051111;28;20376;-31
2023/04/02 04:50:52;;;;;;;16.48;2.72;;;;;;;15.79;49.83;95543.72;5051998;28;20029;-30
2023/04/02 04:53:25;;;;;;;9.95;2.47;;;;;;;15.73;50.39;95545.63;5052090;28;20020;-30
2023/04/02 04:55:55;;;;;;;11.10;2.83;;;;;;;15.51;50.85;95548.09;5040419;28;20396;-31
2023/04/02 04:58:22;;;;;;;15.77;3.42;;;;;;;15.62;50.55;95549.00;5045571;28;20100;-30
2023/04/02 05:01:01;;;;;;;15.82;3.67;;;;;;;15.64;50.92;95541.09;5051803;28;20087;-30
2023/04/02 05:03:52;;;;;;;14.85;3.17;;;;;;;15.71;50.90;95546.13;5052014;28;20021;-30
2023/04/02 05:06:30;;;;;;;16.92;4.70;;;;;;;15.80;50.79;95542.50;5045090;28;20140;-30
2023/04/02 05:09:02;;;;;;;15.93;2.70;;;;;;;15.68;51.04;95544.38;5052023;28;20028;-30
2023/04/02 05:11:35;;;;;;;11.80;2.67;;;;;;;15.75;50.77;95540.44;5046329;28;20021;-30
2023/04/02 05:14:07;;;;;;;17.42;3.15;;;;;;;15.83;50.64;95538.78;5052187;28;20025;-30
2023/04/02 05:16:41;;;;;;;15.93;3.58;;;;;;;15.51;51.39;95537.94;5046590;28;20029;-30
2023/04/02 05:19:49;;;;;;;18.88;3.13;;;;;;;15.72;51.08;95530.47;5051795;28;20031;-30
2023/04/02 05:22:23;;;;;;;13.07;2.90;;;;;;;15.54;51.62;95531.50;5052889;28;20475;-30
2023/04/02 05:24:55;;;;;;;11.35;2.70;;;;;;;15.73;51.33;95535.47;5051461;28;20086;-30
2023/04/02 05:27:44;;;;;;;13.18;2.65;;;;;;;15.84;51.10;95548.47;5039264;28;20017;-31
2023/04/02 05:30:22;;;;;;;14.50;2.70;;;;;;;15.96;50.57;95544.63;5037930;28;20045;-30
2023/04/02 05:32:56;;;;;;;12.20;3.75;;;;;;;15.87;51.28;95554.97;5053270;28;20357;-30
2023/04/02 05:35:27;;;;;;;15.75;2.85;;;;;;;15.74;51.47;95549.88;5051788;28;20052;-30
2023/04/02 05:37:52;;;;;;;19.25;3.58;;;;;;;15.55;51.70;95556.88;5052519;28;20119;-30
2023/04/02 05:40:28;;;;;;;16.75;2.72;;;;;;;15.33;52.54;95549.88;5050856;28;20106;-30
2023/04/02 05:42:56;;;;;;;12.65;3.10;;;;;;;15.46;51.81;95563.94;5052365;28;20021;-30
2023/04/02 05:45:37;;;;;;;18.52;3.10;;;;;;;15.45;52.01;95564.44;5050655;28;20119;-30
2023/04/02 05:48:28;;;;;;;12.10;2.95;;;;;;;15.64;51.59;95570.41;5052280;28;20016;-30
2023/04/02 05:50:57;;;;;;;12.18;3.30;;;;;;;15.85;51.49;95577.34;5041650;28;20028;-30
2023/04/02 05:53:50;;;;;;;17.42;3.13;;;;;;;15.87;51.23;95580.34;5043336;28;20024;-31
2023/04/02 05:56:18;;;;;;;14.15;2.67;;;;;;;15.57;52.08;95576.28;5050761;28;20470;-31
2023/04/02 05:58:49;;;;;;;12.13;2.17;;;;;;;15.57;52.21;95582.50;5044478;28;20373;-31
2023/04/02 06:01:24;;;;;;;13.93;3.15;;;;;;;15.69;52.07;95580.66;5051867;28;20488;-29
2023/04/02 06:04:04;;;;;;;12.68;3.00;;;;;;;15.58;52.61;95575.06;5050560;28;20452;-32
2023/04/02 06:06:35;;;;;;;14.40;2.58;;;;;;;15.93;51.94;95575.69;5050708;28;20372;-30
2023/04/02 06:09:08;;;;;;;10.68;2.42;;;;;;;15.73;52.36;95572.97;5037942;28;20024;-30
2023/04/02 06:11:45;;;;;;;15.38;3.13;;;;;;;15.55;52.92;95576.00;5043645;28;20047;-31
2023/04/02 06:14:15;;;;;;;10.77;3.38;;;;;;;15.83;52.28;95574.31;5039201;28;20044;-30
2023/04/02 06:16:44;;;;;;;10.63;2.33;;;;;;;15.75;52.43;95573.25;5043753;28;20025;-32
2023/04/02 06:19:32;;;;;;;10.52;2.72;;;;;;;15.94;52.52;95577.19;5037571;28;20379;-32
2023/04/02 06:22:08;;;;;;;15.55;3.15;;;;;;;15.80;52.59;95578.78;5049836;28;20377;-31
2023/04/02 06:24:38;;;;;;;14.95;4.55;;;;;;;15.84;52.30;95575.06;5041148;28;20025;-30
2023/04/02 06:27:05;;;;;;;16.67;4.63;;;;;;;15.99;52.01;95575.72;5050300;28;20028;-30
2023/04/02 06:29:38;;;;;;;16.00;4.40;;;;;;;15.95;52.15;95584.13;5051422;28;20110;-30
2023/04/02 06:32:08;;;;;;;14.48;3.90;;;;;;;15.93;52.20;95572.22;5049756;28;20024;-30
2023/04/02 06:34:37;;;;;;;11.88;3.80;;;;;;;16.08;51.39;95572.84;5046606;28;20362;-31
2023/04/02 06:37:10;;;;;;;10.40;3.45;;;;;;;15.93;51.98;95572.97;5039802;28;20021;-30
2023/04/02 06:39:35;;;;;;;17.00;4.07;;;;;;;16.25;51.01;95578.47;5044804;28;20465;-30
2023/04/02 06:42:21;;;;;;;16.23;4.00;;;;;;;15.95;51.75;95577.94;5050897;28;20038;-30
2023/04/02 06:44:47;;;;;;;14.93;3.47;;;;;;;16.33;50.34;95574.81;5051184;28;20017;-30
2023/04/02 06:47:41;;;;;;;12.95;3.85;;;;;;;16.05;50.79;95573.81;5049647;28;20092;-30
2023/04/02 06:50:14;;;;;;;16.98;3.58;;;;;;;16.01;50.90;95571.28;5044072;28;20047;-30
2023/04/02 06:52:45;;;;;;;14.93;3.30;;;;;;;16.23;50.47;95568.00;5041103;28;20108;-31
2023/04/02 06:55:26;;;;;;;9.32;2.88;;;;;;;16.35;50.22;95574.31;5047139;28;20017;-30
2023/04/02 06:57:52;;;;;;;12.63;2.83;;;;;;;16.20;50.55;95568.97;5037484;28;20056;-30
2023/04/02 07:00:30;;;;;;;16.05;2.42;;;;;;;16.11;50.82;95564.41;5050542;28;20041;-30
2023/04/02 07:02:58;;;;;;;13.40;2.70;;;;;;;16.25;50.51;95568.28;5037081;28;20025;-31
2023/04/02 07:05:23;;;;;;;11.05;2.58;;;;;;;16.09;51.09;95563.41;5050564;28;20033;-31
2023/04/02 07:07:49;;;;;;;15.00;2.75;;;;;;;16.35;50.08;95546.97;5049306;28;20087;-32
2023/04/02 07:10:14;;;;;;;13.18;2.17;;;;;;;16.27;50.40;95551.38;5050639;28;20021;-30
2023/04/02 07:12:40;;;;;;;10.50;2.25;;;;;;;16.08;50.68;95556.44;5041785;28;20025;-30
2023/04/02 07:15:06;;;;;;;13.15;2.78;;;;;;;16.27;50.27;95551.38;5050969;28;20444;-30
2023/04/02 07:17:31;;;;;;;15.38;2.15;;;;;;;16.16;50.44;95544.59;5043503;28;20033;-30
2023/04/02 07:19:57;;;;;;;9.75;2.50;;;;;;;16.06;50.56;95558.91;5049022;28;20025;-30
2023/04/02 07:22:24;;;;;;;9.25;1.83;;;;;;;16.33;49.80;95560.38;5050124;28;20029;-31
2023/04/02 07:24:50;;;;;;;12.15;2.03;;;;;;;16.33;49.66;95552.91;5049254;28;20456;-30
2023/04/02 07:27:15;;;;;;;10.60;2.60;;;;;;;16.27;49.91;95552.13;5048922;28;20025;-30
2023/04/02 07:29:43;;;;;;;13.18;1.92;;;;;;;16.27;50.00;95560.34;5050485;28;20461;-30
2023/04/02 07:32:10;;;;;;;11.57;2.50;;;;;;;16.43;49.76;95557.00;5048769;28;20031;-30
2023/04/02 07:34:35;;;;;;;13.35;2.08;;;;;;;16.43;49.92;95565.22;5045431;28;20025;-32
2023/04/02 07:37:01;;;;;;;10.10;2.03;;;;;;;16.37;49.90;95572.63;5046696;28;20017;-30
2023/04/02 07:39:27;;;;;;;8.52;2.30;;;;;;;16.30;49.47;95575.03;5049835;28;20052;-30
2023/04/02 07:41:57;;;;;;;16.00;3.17;;;;;;;16.34;48.82;95573.56;5050267;28;20087;-30
2023/04/02 07:44:23;;;;;;;10.77;2.42;;;;;;;16.26;49.09;95569.03;5048705;28;20465;-31
2023/04/02 07:46:48;;;;;;;11.20;2.95;;;;;;;16.32;49.18;95575.31;5050099;28;20070;-30
2023/04/02 07:49:14;;;;;;;12.88;2.47;;;;;;;16.45;48.54;95576.41;5049234;28;20104;-30
2023/04/02 07:51:39;;;;;;;5.75;1.40;;;;;;;16.50;48.66;95580.44;5049583;28;20024;-30
2023/04/02 07:54:09;;;;;;;9.10;2.45;;;;;;;16.33;48.73;95574.06;5042375;28;20369;-30
2023/04/02 07:56:35;;;;;;;10.40;2.15;;;;;;;16.51;48.09;95590.91;5048531;28;20078;-30
2023/04/02 07:59:01;;;;;;;9.40;2.00;;;;;;;16.53;48.33;95601.38;5050249;28;20083;-30
2023/04/02 08:01:28;;;;;;;6.80;1.85;;;;;;;16.52;48.17;95602.59;5048457;28;20451;-31
2023/04/02 08:03:55;;;;;;;7.13;1.42;;;;;;;16.63;47.97;95605.44;5049957;28;20031;-30
2023/04/02 08:06:22;;;;;;;6.07;2.00;;;;;;;16.69;47.90;95608.97;5050102;28;20033;-30
2023/04/02 08:08:48;;;;;;;9.02;1.90;;;;;;;16.74;47.98;95610.25;5047923;28;20034;-30
2023/04/02 08:11:13;;;;;;;8.90;2.10;;;;;;;16.76;47.77;95608.53;5049970;28;20385;-30
2023/04/02 08:13:39;;;;;;;6.15;1.50;;;;;;;16.75;48.05;95609.03;5048425;28;20071;-31
2023/04/02 08:16:05;;;;;;;8.10;2.42;;;;;;;16.72;47.59;95610.75;5046799;28;20469;-30
2023/04/02 08:18:31;;;;;;;7.85;1.70;;;;;;;16.93;47.29;95613.41;5045785;28;20465;-29
2023/04/02 08:20:57;;;;;;;9.65;2.17;;;;;;;16.71;47.64;95606.50;5047952;28;20046;-31
2023/04/02 08:23:23;;;;;;;7.50;1.80;;;;;;;16.98;46.97;95615.41;5052283;28;20408;-31
2023/04/02 08:25:49;;;;;;;7.68;2.20;;;;;;;16.72;47.44;95607.25;5052601;28;20025;-30
2023/04/02 08:28:15;;;;;;;5.07;1.73;;;;;;;16.86;47.52;95609.84;5052910;28;20025;-29
2023/04/02 08:30:41;;;;;;;9.40;2.35;;;;;;;17.03;46.65;95614.72;5053721;28;20052;-30
2023/04/02 08:33:06;;;;;;;8.65;2.63;;;;;;;17.05;47.16;95606.75;5042670;28;20381;-29
2023/04/02 08:35:32;;;;;;;7.45;2.38;;;;;;;17.02;46.97;95618.69;5045253;28;20029;-30
2023/04/02 08:37:58;;;;;;;7.70;1.73;;;;;;;16.96;46.79;95609.66;5050213;28;20036;-29
2023/04/02 08:40:26;;;;;;;5.43;1.70;;;;;;;16.94;46.65;95617.63;5045340;28;20025;-29
2023/04/02 08:43:06;;;;;;;4.93;1.60;;;;;;;16.99;46.83;95619.66;5053541;28;20032;-29
2023/04/02 08:45:38;;;;;;;6.88;1.65;;;;;;;17.18;46.37;95615.31;5046334;28;20062;-29
2023/04/02 08:48:05;;;;;;;10.05;2.20;;;;;;;17.02;46.58;95610.47;5053543;28;20017;-29
2023/04/02 08:50:36;;;;;;;11.15;1.85;;;;;;;17.26;46.10;95610.84;5051501;28;20048;-30
2023/04/02 08:53:05;;;;;;;10.60;2.20;;;;;;;16.94;46.34;95606.69;5047617;28;20026;-30
2023/04/02 08:56:04;;;;;;;5.13;1.42;;;;;;;17.07;45.13;95609.72;5050564;28;20480;-31
2023/04/02 08:59:07;;;;;;;9.35;2.65;;;;;;;17.07;45.66;95610.47;5051183;28;20037;-29
2023/04/02 09:01:47;;;;;;;6.88;2.55;;;;;;;16.97;45.63;95611.16;5043155;28;20037;-29
2023/04/02 09:04:19;;;;;;;7.75;2.30;;;;;;;17.16;45.68;95617.78;5053074;28;20089;-29
2023/04/02 09:06:46;;;;;;;5.28;1.88;;;;;;;17.32;45.52;95613.63;5051377;28;20031;-29
2023/04/02 09:09:14;;;;;;;6.43;1.52;;;;;;;17.31;45.19;95609.41;5052895;28;20395;-29
2023/04/02 09:11:42;;;;;;;3.45;1.80;;;;;;;17.21;45.92;95603.34;5051527;28;20456;-31
2023/04/02 09:14:17;;;;;;;3.80;1.30;;;;;;;17.24;45.59;95600.38;5053138;28;20025;-30
2023/04/02 09:16:47;;;;;;;4.72;1.40;;;;;;;17.23;46.23;95598.13;5044084;28;20028;-29
2023/04/02 09:19:20;;;;;;;10.50;2.03;;;;;;;17.13;45.07;95603.06;5039153;28;20031;-29
2023/04/02 09:22:00;;;;;;;6.32;2.25;;;;;;;17.33;44.77;95610.38;5051830;28;20021;-29
2023/04/02 09:24:26;;;;;;;7.97;2.08;;;;;;;17.17;45.75;95609.06;5041698;28;20042;-29
2023/04/02 09:26:51;;;;;;;6.72;1.80;;;;;;;17.28;44.77;95618.59;5051578;28;20028;-30
2023/04/02 09:29:41;;;;;;;7.15;2.00;;;;;;;17.28;44.75;95619.34;5052324;28;20659;-29
2023/04/02 09:32:21;;;;;;;8.35;2.40;;;;;;;17.29;45.80;95622.84;5050786;28;20107;-29
2023/04/02 09:34:46;;;;;;;10.23;2.78;;;;;;;17.25;45.17;95628.53;5046153;28;20465;-31
2023/04/02 09:37:24;;;;;;;6.53;2.20;;;;;;;17.28;44.84;95627.56;5050056;28;20079;-29
2023/04/02 09:39:50;;;;;;;11.00;3.95;;;;;;;17.16;45.29;95623.25;5047047;28;20108;-29
2023/04/02 09:42:33;;;;;;;9.75;4.40;;;;;;;17.23;44.96;95626.28;5049181;28;20021;-29
2023/04/02 09:45:13;;;;;;;;;;;;;;;17.33;45.12;95624.09;5052499;28;20021;-30
2023/04/02 09:47:40;;;;;;;11.00;4.00;;;;;;;17.26;45.23;95630.03;5037725;28;19920;-29
2023/04/02 09:50:32;;;;;;;7.20;2.90;;;;;;;17.38;44.85;95628.88;5052393;28;20024;-29
2023/04/02 09:53:15;;;;;;;9.80;3.37;;;;;;;17.15;45.33;95622.50;5035268;28;20534;-29
2023/04/02 09:55:41;;;;;;;7.57;2.70;;;;;;;17.37;45.46;95635.59;5044815;28;20076;-29
2023/04/02 09:58:14;;;;;;;9.07;2.70;;;;;;;17.33;44.67;95637.03;5047176;28;20397;-30
2023/04/02 10:00:49;;;;;;;7.63;2.70;;;;;;;17.10;44.15;95633.41;5049746;28;20140;-30
2023/04/02 10:03:30;;;;;;;10.70;2.03;;;;;;;17.23;44.54;95634.50;5052220;28;20020;-30
2023/04/02 10:06:22;;;;;;;9.13;2.50;;;;;;;17.17;44.51;95636.47;5037528;28;20013;-29
2023/04/02 10:08:47;;;;;;;5.75;2.65;;;;;;;17.22;44.24;95637.72;5043057;28;20050;-29
2023/04/02 10:11:18;;;;;;;6.70;3.33;;;;;;;17.34;44.21;95639.28;5051687;28;20428;-29
2023/04/02 10:14:04;;;;;;;9.02;3.95;;;;;;;17.05;44.50;95628.66;5050215;28;20025;-30
2023/04/02 10:16:37;;;;;;;10.80;3.55;;;;;;;17.23;45.01;95634.50;5045257;28;20036;-31
2023/04/02 10:19:34;;;;;;;11.35;3.22;;;;;;;17.14;44.99;95636.69;5050743;28;20476;-29
2023/04/02 10:22:05;;;;;;;14.23;5.80;;;;;;;17.10;44.69;95642.38;5049788;28;20052;-30
2023/04/02 10:24:31;;;;;;;14.20;4.65;;;;;;;17.20;45.02;95637.47;5051796;28;20025;-32
2023/04/02 10:27:08;;;;;;;9.15;4.13;;;;;;;17.43;45.02;95635.63;5049756;28;20020;-30
2023/04/02 10:29:40;;;;;;;14.45;5.28;;;;;;;17.20;45.29;95638.22;5042217;28;20095;-29
2023/04/02 10:32:29;;;;;;;10.35;4.00;;;;;;;17.27;45.06;95639.00;5048731;28;20384;-29
2023/04/02 10:35:03;;;;;;;10.65;4.10;;;;;;;17.22;45.60;95643.22;5043423;28;20461;-29
2023/04/02 10:38:18;;;;;;;9.27;3.20;;;;;;;17.11;44.49;95632.19;5037364;28;20036;-29
2023/04/02 10:40:48;;;;;;;6.55;3.20;;;;;;;17.45;44.33;95633.88;5044351;28;20044;-31
2023/04/02 10:43:46;;;;;;;7.70;3.00;;;;;;;17.50;44.29;95635.91;5049760;28;20017;-29
2023/04/02 10:46:25;;;;;;;6.22;2.55;;;;;;;17.50;44.96;95635.16;5048845;28;20013;-29
2023/04/02 10:49:02;;;;;;;6.18;2.03;;;;;;;17.46;44.64;95632.63;5040129;28;20456;-32
2023/04/02 10:51:36;;;;;;;7.65;2.13;;;;;;;17.54;44.42;95628.22;5048091;28;20033;-29
2023/04/02 10:54:12;;;;;;;7.63;2.28;;;;;;;17.23;44.79;95633.75;5038690;28;20025;-29
2023/04/02 10:56:38;;;;;;;7.53;1.73;;;;;;;17.40;44.53;95636.59;5049326;28;20373;-30
2023/04/02 10:59:13;;;;;;;6.95;2.30;;;;;;;17.51;44.18;95631.91;5044049;28;20017;-30
2023/04/02 11:01:42;;;;;;;11.15;3.10;;;;;;;17.36;44.41;95631.34;5049238;28;20091;-30
2023/04/02 11:04:32;;;;;;;8.45;3.30;;;;;;;17.38;44.17;95623.38;5049273;28;20582;-29
2023/04/02 11:07:03;;;;;;;8.60;2.22;;;;;;;17.38;44.14;95620.63;5050796;28;20033;-29
2023/04/02 11:09:32;;;;;;;8.80;2.40;;;;;;;17.44;43.89;95626.13;5050534;28;20074;-29
2023/04/02 11:12:00;;;;;;;10.65;2.70;;;;;;;17.30;44.21;95618.84;5049874;28;20021;-29
2023/04/02 11:14:29;;;;;;;6.13;1.65;;;;;;;17.42;43.68;95618.44;5050328;28;20040;-29
2023/04/02 11:16:57;;;;;;;7.35;2.08;;;;;;;17.40;43.45;95620.91;5048973;28;20025;-30
2023/04/02 11:19:29;;;;;;;6.90;1.40;;;;;;;17.38;42.91;95614.41;5050719;28;20106;-29
2023/04/02 11:21:56;;;;;;;6.60;1.60;;;;;;;17.50;42.54;95618.72;5048955;28;20029;-29
2023/04/02 11:24:33;;;;;;;6.50;2.10;;;;;;;17.30;42.15;95616.88;5050579;28;20025;-29
2023/04/02 11:27:10;;;;;;;5.90;1.17;;;;;;;17.63;42.37;95610.81;5049058;28;20060;-29
2023/04/02 11:29:39;;;;;;;6.35;1.52;;;;;;;17.59;43.29;95613.00;5050444;28;20033;-29
2023/04/02 11:32:26;;;;;;;6.50;1.35;;;;;;;17.54;41.92;95609.03;5048925;28;20155;-31
2023/04/02 11:34:54;;;;;;;2.92;1.00;;;;;;;17.47;42.97;95614.19;5043225;28;20137;-29
2023/04/02 11:37:39;;;;;;;6.10;1.83;;;;;;;17.72;42.57;95607.84;5048724;28;20040;-30
2023/04/02 11:40:11;;;;;;;5.10;1.15;;;;;;;17.48;42.26;95602.75;5042441;28;20431;-29
2023/04/02 11:42:41;;;;;;;6.65;1.70;;;;;;;17.65;42.34;95602.09;5036963;28;20460;-29
2023/04/02 11:45:19;;;;;;;5.65;1.20;;;;;;;17.33;42.38;95606.91;5049072;28;20024;-29
2023/04/02 11:48:16;;;;;;;6.25;1.67;;;;;;;17.27;42.01;95604.13;5037649;28;20041;-30
2023/04/02 11:50:45;;;;;;;5.85;1.48;;;;;;;17.45;41.98;95600.22;5049649;28;20029;-30
2023/04/02 11:53:10;;;;;;;6.05;1.48;;;;;;;17.47;41.70;95606.72;5043308;28;20025;-29
2023/04/02 11:55:57;;;;;;;5.05;1.23;;;;;;;17.48;41.68;95597.25;5048065;28;20029;-30
2023/04/02 11:58:57;;;;;;;7.80;2.50;;;;;;;17.45;40.68;95587.28;5039324;28;20037;-29
2023/04/02 12:01:34;;;;;;;7.07;2.60;;;;;;;17.46;41.13;95580.56;5050262;28;20041;-30
2023/04/02 12:04:22;;;;;;;8.13;2.20;;;;;;;17.27;41.17;95584.22;5043621;28;20048;-29